createdAt,value
2023-01-23T00:02:17.544Z,12.37
2023-01-23T00:04:44.974Z,12.80
2023-01-23T00:07:12.285Z,11.97
2023-01-23T00:09:39.766Z,12.57
2023-01-23T00:12:07.336Z,12.77
2023-01-23T00:14:34.776Z,12.13
2023-01-23T00:17:02.108Z,12.03
2023-01-23T00:19:29.566Z,12.03
2023-01-23T00:21:59.109Z,11.53
2023-01-23T00:24:26.527Z,12.33
2023-01-23T00:26:53.866Z,11.53
2023-01-23T00:29:21.236Z,12.10
2023-01-23T00:31:48.711Z,12.10
2023-01-23T00:34:16.214Z,10.57
2023-01-23T00:36:44.243Z,5.80
2023-01-23T00:39:17.263Z,8.33
2023-01-23T00:41:45.089Z,10.37
2023-01-23T00:44:12.350Z,9.80
2023-01-23T00:46:39.877Z,10.53
2023-01-23T00:49:07.361Z,10.83
2023-01-23T00:51:34.905Z,10.63
2023-01-23T00:54:02.292Z,11.17
2023-01-23T00:56:29.675Z,10.57
2023-01-23T00:58:57.109Z,11.87
2023-01-23T01:01:24.580Z,11.53
2023-01-23T01:03:51.930Z,10.30
2023-01-23T01:06:19.304Z,12.07
2023-01-23T01:08:46.642Z,11.03
2023-01-23T01:11:13.963Z,11.37
2023-01-23T01:13:41.404Z,11.10
2023-01-23T01:16:08.893Z,9.90
2023-01-23T01:18:36.174Z,12.33
2023-01-23T01:21:06.739Z,11.60
2023-01-23T01:23:34.235Z,10.70
2023-01-23T01:26:01.570Z,12.30
2023-01-23T01:28:30.453Z,10.83
2023-01-23T01:31:04.855Z,11.00
2023-01-23T01:33:33.147Z,10.47
2023-01-23T01:36:00.512Z,11.77
2023-01-23T01:38:27.986Z,9.87
2023-01-23T01:40:57.375Z,10.63
2023-01-23T01:43:26.557Z,10.27
2023-01-23T01:46:07.749Z,10.67
2023-01-23T01:48:50.307Z,9.23
2023-01-23T01:51:17.788Z,10.57
2023-01-23T01:53:46.736Z,10.60
2023-01-23T01:56:14.297Z,10.60
2023-01-23T01:58:41.917Z,10.80
2023-01-23T02:01:09.373Z,11.57
2023-01-23T02:03:36.830Z,10.03
2023-01-23T02:06:04.171Z,10.13
2023-01-23T02:08:34.715Z,10.80
2023-01-23T02:11:05.351Z,11.20
2023-01-23T02:13:37.157Z,10.20
2023-01-23T02:16:05.633Z,9.93
2023-01-23T02:18:33.541Z,11.07
2023-01-23T02:21:02.314Z,10.10
2023-01-23T02:23:44.851Z,11.13
2023-01-23T02:26:12.918Z,10.67
2023-01-23T02:28:44.375Z,10.23
2023-01-23T02:31:11.842Z,10.07
2023-01-23T02:33:39.439Z,10.30
2023-01-23T02:36:09.083Z,10.63
2023-01-23T02:38:37.907Z,10.93
2023-01-23T02:41:05.301Z,10.40
2023-01-23T02:43:39.267Z,10.87
2023-01-23T02:46:07.173Z,11.37
2023-01-23T02:48:34.588Z,10.53
2023-01-23T02:51:01.860Z,11.47
2023-01-23T02:53:30.600Z,10.97
2023-01-23T02:55:58.905Z,11.40
2023-01-23T02:58:44.881Z,11.57
2023-01-23T03:01:12.287Z,11.73
2023-01-23T03:03:42.367Z,11.57
2023-01-23T03:06:09.867Z,11.20
2023-01-23T03:08:47.756Z,10.80
2023-01-23T03:11:15.451Z,11.47
2023-01-23T03:13:42.803Z,11.40
2023-01-23T03:16:10.196Z,11.63
2023-01-23T03:18:52.911Z,12.13
2023-01-23T03:21:21.454Z,12.43
2023-01-23T03:23:48.837Z,12.77
2023-01-23T03:26:18.129Z,13.20
2023-01-23T03:29:04.125Z,11.77
2023-01-23T03:31:31.625Z,11.70
2023-01-23T03:33:59.092Z,12.53
2023-01-23T03:36:26.502Z,11.60
2023-01-23T03:39:12.763Z,11.07
2023-01-23T03:41:42.094Z,12.00
2023-01-23T03:44:09.716Z,11.73
2023-01-23T03:46:37.050Z,11.57
2023-01-23T03:49:04.475Z,12.13
2023-01-23T03:51:31.920Z,12.30
2023-01-23T03:53:59.286Z,10.20
2023-01-23T03:56:26.652Z,12.20
2023-01-23T03:58:54.106Z,12.13
2023-01-23T04:01:21.435Z,10.80
2023-01-23T04:03:48.812Z,12.63
2023-01-23T04:06:16.082Z,12.43
2023-01-23T04:08:43.418Z,11.97
2023-01-23T04:11:10.925Z,12.60
2023-01-23T04:13:38.251Z,11.67
2023-01-23T04:16:05.781Z,12.70
2023-01-23T04:18:33.458Z,13.40
2023-01-23T04:21:00.726Z,11.90
2023-01-23T04:23:28.055Z,13.13
2023-01-23T04:25:55.315Z,12.20
2023-01-23T04:28:22.716Z,12.37
2023-01-23T04:30:51.404Z,12.67
2023-01-23T04:33:19.315Z,12.13
2023-01-23T04:35:56.457Z,13.17
2023-01-23T04:38:24.306Z,12.33
2023-01-23T04:40:51.729Z,12.20
2023-01-23T04:43:19.145Z,12.63
2023-01-23T04:45:46.669Z,12.90
2023-01-23T04:48:14.162Z,12.50
2023-01-23T04:50:41.449Z,12.00
2023-01-23T04:53:08.777Z,11.43
2023-01-23T04:55:36.166Z,12.67
2023-01-23T04:58:03.614Z,10.43
2023-01-23T05:00:30.997Z,12.73
2023-01-23T05:02:58.366Z,12.57
2023-01-23T05:05:25.800Z,12.60
2023-01-23T05:07:53.142Z,12.03
2023-01-23T05:10:20.811Z,12.97
2023-01-23T05:12:48.270Z,12.63
2023-01-23T05:15:17.373Z,12.83
2023-01-23T05:17:44.707Z,13.27
2023-01-23T05:20:12.318Z,13.13
2023-01-23T05:22:52.519Z,14.00
2023-01-23T05:25:23.536Z,13.47
2023-01-23T05:27:50.915Z,12.93
2023-01-23T05:30:18.952Z,13.87
2023-01-23T05:32:46.503Z,13.47
2023-01-23T05:35:14.263Z,13.67
2023-01-23T05:37:41.925Z,11.70
2023-01-23T05:40:09.839Z,13.33
2023-01-23T05:42:37.196Z,12.93
2023-01-23T05:45:04.572Z,14.00
2023-01-23T05:47:31.914Z,13.30
2023-01-23T05:49:59.180Z,13.50
2023-01-23T05:52:26.551Z,13.73
2023-01-23T05:54:53.833Z,13.70
2023-01-23T05:57:21.129Z,14.87
2023-01-23T05:59:48.472Z,14.20
2023-01-23T06:02:16.080Z,13.57
2023-01-23T06:04:43.580Z,14.07
2023-01-23T06:07:14.056Z,13.63
2023-01-23T06:09:41.331Z,13.37
2023-01-23T06:12:09.146Z,14.57
2023-01-23T06:14:36.495Z,13.97
2023-01-23T06:17:03.880Z,13.40
2023-01-23T06:19:31.255Z,13.97
2023-01-23T06:21:58.548Z,14.73
2023-01-23T06:24:25.948Z,15.80
2023-01-23T06:26:53.375Z,14.03
2023-01-23T06:29:20.672Z,14.93
2023-01-23T06:31:48.022Z,14.70
2023-01-23T06:34:15.712Z,14.47
2023-01-23T06:36:43.156Z,15.33
2023-01-23T06:39:12.459Z,15.73
2023-01-23T06:41:39.823Z,15.10
2023-01-23T06:44:07.888Z,15.60
2023-01-23T06:46:35.469Z,15.17
2023-01-23T06:49:05.220Z,14.50
2023-01-23T06:51:33.886Z,15.03
2023-01-23T06:54:01.152Z,13.57
2023-01-23T06:56:28.492Z,14.27
2023-01-23T06:58:55.951Z,15.10
2023-01-23T07:01:24.110Z,15.90
2023-01-23T07:03:51.455Z,13.83
2023-01-23T07:06:19.018Z,13.20
2023-01-23T07:08:46.629Z,15.10
2023-01-23T07:11:14.032Z,14.07
2023-01-23T07:13:41.412Z,14.17
2023-01-23T07:16:09.099Z,15.23
2023-01-23T07:18:36.399Z,14.67
2023-01-23T07:21:07.210Z,14.47
2023-01-23T07:23:35.251Z,16.20
2023-01-23T07:26:03.767Z,16.77
2023-01-23T07:28:31.560Z,16.43
2023-01-23T07:30:59.817Z,14.63
2023-01-23T07:33:27.215Z,15.87
2023-01-23T07:35:54.847Z,15.27
2023-01-23T07:38:25.921Z,15.13
2023-01-23T07:40:53.322Z,15.67
2023-01-23T07:43:20.668Z,14.90
2023-01-23T07:45:48.018Z,16.83
2023-01-23T07:48:15.272Z,13.50
2023-01-23T07:50:42.650Z,15.07
2023-01-23T07:53:10.005Z,15.20
2023-01-23T07:55:38.662Z,16.37
2023-01-23T07:58:06.010Z,15.57
2023-01-23T08:00:33.583Z,14.60
2023-01-23T08:03:01.030Z,15.73
2023-01-23T08:05:28.469Z,14.97
2023-01-23T08:08:11.358Z,14.87
2023-01-23T08:10:40.083Z,14.90
2023-01-23T08:13:07.687Z,14.70
2023-01-23T08:15:34.959Z,15.97
2023-01-23T08:18:02.379Z,14.93
2023-01-23T08:20:29.644Z,15.13
2023-01-23T08:22:59.057Z,16.03
2023-01-23T08:25:26.446Z,16.17
2023-01-23T08:27:53.757Z,16.17
2023-01-23T08:30:21.481Z,15.53
2023-01-23T08:32:49.005Z,16.07
2023-01-23T08:35:16.510Z,16.90
2023-01-23T08:37:43.837Z,16.10
2023-01-23T08:40:11.549Z,14.73
2023-01-23T08:42:39.013Z,14.77
2023-01-23T08:45:06.541Z,15.57
2023-01-23T08:47:36.929Z,15.33
2023-01-23T08:50:05.226Z,14.23
2023-01-23T08:52:34.844Z,15.33
2023-01-23T08:55:02.302Z,15.70
2023-01-23T08:57:29.573Z,14.00
2023-01-23T08:59:56.943Z,15.07
2023-01-23T09:02:24.659Z,15.33
2023-01-23T09:04:52.096Z,14.47
2023-01-23T09:07:19.414Z,15.17
2023-01-23T09:09:47.103Z,15.27
2023-01-23T09:12:14.662Z,14.10
2023-01-23T09:14:42.158Z,14.67
2023-01-23T09:17:09.472Z,13.97
2023-01-23T09:19:36.937Z,16.23
2023-01-23T09:22:04.577Z,14.63
2023-01-23T09:24:31.889Z,14.13
2023-01-23T09:26:59.328Z,14.53
2023-01-23T09:29:26.715Z,14.70
2023-01-23T09:31:54.170Z,13.97
2023-01-23T09:34:21.506Z,15.90
2023-01-23T09:36:48.876Z,15.10
2023-01-23T09:39:16.291Z,14.80
2023-01-23T09:41:44.770Z,14.83
2023-01-23T09:44:13.920Z,15.43
2023-01-23T09:46:46.270Z,14.07
2023-01-23T09:49:19.694Z,15.10
2023-01-23T09:51:46.939Z,16.07
2023-01-23T09:54:28.882Z,15.73
2023-01-23T09:56:56.144Z,14.73
2023-01-23T09:59:26.504Z,13.73
2023-01-23T10:01:53.833Z,14.40
2023-01-23T10:04:21.512Z,15.80
2023-01-23T10:06:53.197Z,16.07
2023-01-23T10:09:22.795Z,14.60
2023-01-23T10:12:05.379Z,15.20
2023-01-23T10:14:51.603Z,15.30
2023-01-23T10:17:34.762Z,14.43
2023-01-23T10:20:14.552Z,14.53
2023-01-23T10:23:02.188Z,13.97
2023-01-23T10:25:30.430Z,13.30
2023-01-23T10:27:58.346Z,14.63
2023-01-23T10:30:30.089Z,14.87
2023-01-23T10:33:02.258Z,13.57
2023-01-23T10:35:37.356Z,13.80
2023-01-23T10:38:07.357Z,13.70
2023-01-23T10:40:53.505Z,12.90
2023-01-23T10:43:21.536Z,12.80
2023-01-23T10:45:49.290Z,12.53
2023-01-23T10:48:34.751Z,12.93
2023-01-23T10:51:02.156Z,12.57
2023-01-23T10:53:29.472Z,12.17
2023-01-23T10:55:58.453Z,13.33
2023-01-23T10:58:30.449Z,11.33
2023-01-23T11:00:57.888Z,12.30
2023-01-23T11:03:29.711Z,11.93
2023-01-23T11:05:57.022Z,11.70
2023-01-23T11:08:24.336Z,11.83
2023-01-23T11:10:51.720Z,11.50
2023-01-23T11:13:28.867Z,11.47
2023-01-23T11:15:56.348Z,11.47
2023-01-23T11:18:28.708Z,11.40
2023-01-23T11:20:56.139Z,10.03
2023-01-23T11:23:23.563Z,11.53
2023-01-23T11:25:54.229Z,11.03
2023-01-23T11:28:34.105Z,11.53
2023-01-23T11:31:14.792Z,10.87
2023-01-23T11:33:42.832Z,11.17
2023-01-23T11:36:23.350Z,10.63
2023-01-23T11:38:53.194Z,11.27
2023-01-23T11:41:20.736Z,10.90
2023-01-23T11:43:48.071Z,10.63
2023-01-23T11:46:24.791Z,9.40
2023-01-23T11:48:55.207Z,9.93
2023-01-23T11:51:27.427Z,9.47
2023-01-23T11:54:13.712Z,9.40
2023-01-23T11:56:59.583Z,10.20
2023-01-23T11:59:43.997Z,9.27
2023-01-23T12:02:14.430Z,9.50
2023-01-23T12:04:41.761Z,9.37
2023-01-23T12:07:12.158Z,9.47
2023-01-23T12:09:42.483Z,9.43
2023-01-23T12:12:23.196Z,9.00
2023-01-23T12:14:50.529Z,8.73
2023-01-23T12:17:33.829Z,8.40
2023-01-23T12:20:13.503Z,8.70
2023-01-23T12:22:46.828Z,8.67
2023-01-23T12:25:25.758Z,10.37
2023-01-23T12:27:58.018Z,9.30
2023-01-23T12:30:28.495Z,8.80
2023-01-23T12:32:58.880Z,9.50
2023-01-23T12:35:45.293Z,9.43
2023-01-23T12:38:27.872Z,10.30
2023-01-23T12:41:09.066Z,9.23
2023-01-23T12:43:38.711Z,9.33
2023-01-23T12:46:07.267Z,9.53
2023-01-23T12:48:42.837Z,9.53
2023-01-23T12:51:11.656Z,7.90
2023-01-23T12:53:39.328Z,8.37
2023-01-23T12:56:08.882Z,8.50
2023-01-23T12:58:36.802Z,8.03
2023-01-23T13:01:21.814Z,8.47
2023-01-23T13:03:52.228Z,8.27
2023-01-23T13:06:39.789Z,9.17
2023-01-23T13:09:28.877Z,8.77
2023-01-23T13:11:56.229Z,9.70
2023-01-23T13:14:43.428Z,9.03
2023-01-23T13:17:47.301Z,8.80
2023-01-23T13:20:40.132Z,8.93
2023-01-23T13:23:26.247Z,8.23
2023-01-23T13:26:12.215Z,7.63
2023-01-23T13:28:45.904Z,8.47
2023-01-23T13:31:32.520Z,8.17
2023-01-23T13:34:14.677Z,8.03
2023-01-23T13:36:42.651Z,8.37
2023-01-23T13:39:22.203Z,7.70
2023-01-23T13:41:50.539Z,7.33
2023-01-23T13:44:22.956Z,8.00
2023-01-23T14:24:27.364Z,7.80
2023-01-23T14:27:07.496Z,7.20
2023-01-23T14:29:35.230Z,7.93
2023-01-23T14:32:02.719Z,7.87
2023-01-23T14:34:30.052Z,7.03
2023-01-23T14:37:02.763Z,7.63
2023-01-23T14:39:30.406Z,6.80
2023-01-23T14:42:00.348Z,7.60
2023-01-23T14:44:32.382Z,6.87
2023-01-23T14:46:59.735Z,7.50
2023-01-23T14:49:27.915Z,7.40
2023-01-23T14:51:59.303Z,7.63
2023-01-23T14:54:32.554Z,6.63
2023-01-23T14:57:00.583Z,7.20
2023-01-23T14:59:29.140Z,8.30
2023-01-23T15:02:03.315Z,6.87
2023-01-23T15:04:32.687Z,7.27
2023-01-23T15:07:00.411Z,7.37
2023-01-23T15:09:41.741Z,7.17
2023-01-23T15:12:12.771Z,7.40
2023-01-23T15:14:40.317Z,6.60
2023-01-23T15:17:14.724Z,7.03
2023-01-23T15:19:42.203Z,6.30
2023-01-23T15:22:18.376Z,6.90
2023-01-23T15:24:45.777Z,7.83
2023-01-23T15:27:25.466Z,6.83
2023-01-23T15:29:52.992Z,6.77
2023-01-23T15:32:25.416Z,7.93
2023-01-23T15:34:54.314Z,7.23
2023-01-23T15:37:23.864Z,8.13
2023-01-23T15:39:52.052Z,7.97
2023-01-23T15:42:19.379Z,8.23
2023-01-23T15:44:46.808Z,7.70
2023-01-23T15:47:14.167Z,7.77
2023-01-23T15:49:41.562Z,7.57
2023-01-23T15:52:21.723Z,9.53
2023-01-23T15:54:49.964Z,9.00
2023-01-23T15:57:17.294Z,9.33
2023-01-23T15:59:44.620Z,8.80
2023-01-23T16:02:30.652Z,9.03
2023-01-23T16:04:58.977Z,8.10
2023-01-23T16:07:34.497Z,7.80
2023-01-23T16:10:03.304Z,8.27
2023-01-23T16:12:30.712Z,9.30
2023-01-23T16:14:58.061Z,7.90
2023-01-23T16:17:25.471Z,8.37
2023-01-23T16:19:54.495Z,7.83
2023-01-23T16:22:29.513Z,8.03
2023-01-23T16:24:57.311Z,7.80
2023-01-23T16:27:27.919Z,8.67
2023-01-23T16:29:55.843Z,8.33
2023-01-23T16:32:23.466Z,7.90
2023-01-23T16:34:50.933Z,7.80
2023-01-23T16:37:18.597Z,8.63
2023-01-23T16:39:46.339Z,8.23
2023-01-23T16:42:16.728Z,7.70
2023-01-23T16:44:44.074Z,8.20
2023-01-23T16:47:11.399Z,7.97
2023-01-23T16:49:51.640Z,9.07
2023-01-23T16:52:19.876Z,8.97
2023-01-23T16:54:47.332Z,9.13
2023-01-23T16:57:16.424Z,8.20
2023-01-23T16:59:43.862Z,8.37
2023-01-23T17:02:30.438Z,8.77
2023-01-23T17:04:57.913Z,8.83
2023-01-23T17:07:25.225Z,8.23
2023-01-23T17:09:52.709Z,9.30
2023-01-23T17:12:23.536Z,9.87
2023-01-23T17:14:52.776Z,9.17
2023-01-23T17:17:23.656Z,8.30
2023-01-23T17:19:51.068Z,8.47
2023-01-23T17:22:25.701Z,8.90
2023-01-23T17:24:53.161Z,8.60
2023-01-23T17:27:20.574Z,9.47
2023-01-23T17:29:49.265Z,8.90
2023-01-23T17:32:23.021Z,8.50
2023-01-23T17:34:50.611Z,9.27
2023-01-23T17:37:21.345Z,7.90
2023-01-23T17:39:48.753Z,9.57
2023-01-23T17:42:16.810Z,8.47
2023-01-23T17:44:44.110Z,7.90
2023-01-23T17:47:14.851Z,8.20
2023-01-23T17:49:42.600Z,8.27
2023-01-23T17:52:10.549Z,7.67
2023-01-23T17:54:37.850Z,8.27
2023-01-23T17:57:05.367Z,8.30
2023-01-23T17:59:32.649Z,8.53
2023-01-23T18:02:00.074Z,9.00
2023-01-23T18:04:27.401Z,10.07
2023-01-23T18:06:54.788Z,8.47
2023-01-23T18:09:22.232Z,8.73
2023-01-23T18:11:52.690Z,8.33
2023-01-23T18:14:41.632Z,8.90
2023-01-23T18:17:29.477Z,7.90
2023-01-23T18:19:56.920Z,7.93
2023-01-23T18:22:24.301Z,7.80
2023-01-23T18:24:51.792Z,8.43
2023-01-23T18:27:19.117Z,7.67
2023-01-23T18:29:56.482Z,6.50
2023-01-23T18:32:42.357Z,7.57
2023-01-23T18:35:25.018Z,7.20
2023-01-23T18:37:56.093Z,8.13
2023-01-23T18:40:23.576Z,7.70
2023-01-23T18:42:55.602Z,7.80
2023-01-23T18:45:27.282Z,8.07
2023-01-23T18:47:55.105Z,8.90
2023-01-23T18:50:23.049Z,9.00
2023-01-23T18:52:52.033Z,8.30
2023-01-23T18:55:22.772Z,9.27
2023-01-23T18:57:50.375Z,9.20
2023-01-23T19:00:20.134Z,8.97
2023-01-23T19:02:55.433Z,8.63
2023-01-23T19:05:30.447Z,8.87
2023-01-23T19:07:57.966Z,9.70
2023-01-23T19:10:25.957Z,9.03
2023-01-23T19:12:56.114Z,8.37
2023-01-23T19:15:30.423Z,9.13
2023-01-23T19:18:01.255Z,9.93
2023-01-23T19:20:48.421Z,10.83
2023-01-23T19:23:22.353Z,9.60
2023-01-23T19:25:49.831Z,10.00
2023-01-23T19:28:17.198Z,10.23
2023-01-23T19:30:44.776Z,10.70
2023-01-23T19:33:18.660Z,9.87
2023-01-23T19:35:46.378Z,9.90
2023-01-23T19:38:15.209Z,10.37
2023-01-23T19:40:42.923Z,10.97
2023-01-23T19:43:16.910Z,9.83
2023-01-23T19:45:44.950Z,9.77
2023-01-23T19:48:12.324Z,10.53
2023-01-23T19:50:39.816Z,11.17
2023-01-23T19:53:07.393Z,9.73
2023-01-23T19:55:35.903Z,9.60
2023-01-23T19:58:03.294Z,9.83
2023-01-23T20:00:31.667Z,10.77
2023-01-23T20:02:59.155Z,11.10
2023-01-23T20:05:26.619Z,11.63
2023-01-23T20:07:57.082Z,11.50
2023-01-23T20:10:24.425Z,11.37
2023-01-23T20:12:52.301Z,12.40
2023-01-23T20:15:21.790Z,12.17
2023-01-23T20:17:49.329Z,13.57
2023-01-23T20:20:16.721Z,11.97
2023-01-23T20:22:44.196Z,13.30
2023-01-23T20:25:12.489Z,13.30
2023-01-23T20:27:39.752Z,13.53
2023-01-23T20:30:07.938Z,14.80
2023-01-23T20:32:35.361Z,13.27
2023-01-23T20:35:02.707Z,13.87
2023-01-23T20:37:30.110Z,14.40
2023-01-23T20:39:57.518Z,14.47
2023-01-23T20:42:24.965Z,13.50
2023-01-23T20:44:52.408Z,14.03
2023-01-23T20:47:19.835Z,14.50
2023-01-23T20:49:47.144Z,14.63
2023-01-23T20:52:33.392Z,14.27
2023-01-23T20:55:00.628Z,14.50
2023-01-23T20:57:47.957Z,14.13
2023-01-23T21:00:15.404Z,15.10
2023-01-23T21:02:42.736Z,15.10
2023-01-23T21:05:10.122Z,15.30
2023-01-23T21:07:37.478Z,14.47
2023-01-23T21:10:04.972Z,14.83
2023-01-23T21:12:32.306Z,15.83
2023-01-23T21:15:00.496Z,14.67
2023-01-23T21:17:27.916Z,14.63
2023-01-23T21:19:55.287Z,14.70
2023-01-23T21:22:22.517Z,15.23
2023-01-23T21:24:49.805Z,15.20
2023-01-23T21:27:20.940Z,15.33
2023-01-23T21:29:48.507Z,15.13
2023-01-23T21:32:15.848Z,14.60
2023-01-23T21:34:43.252Z,14.73
2023-01-23T21:37:10.986Z,15.17
2023-01-23T21:39:38.826Z,15.87
2023-01-23T21:42:06.150Z,16.17
2023-01-23T21:44:35.482Z,15.37
2023-01-23T21:47:03.112Z,14.63
2023-01-23T21:49:31.496Z,15.53
2023-01-23T21:51:58.797Z,14.77
2023-01-23T21:54:26.031Z,16.00
2023-01-23T21:56:53.335Z,15.87
2023-01-23T21:59:20.641Z,15.87
2023-01-23T22:01:47.988Z,14.33
2023-01-23T22:04:18.447Z,15.87
2023-01-23T22:06:46.132Z,15.53
2023-01-23T22:09:15.167Z,16.87
2023-01-23T22:11:42.560Z,16.43
2023-01-23T22:14:09.888Z,15.77
2023-01-23T22:16:48.016Z,16.30
2023-01-23T22:19:16.610Z,15.07
2023-01-23T22:21:46.579Z,15.63
2023-01-23T22:24:14.299Z,15.17
2023-01-23T22:26:41.737Z,14.83
2023-01-23T22:29:09.109Z,15.33
2023-01-23T22:31:36.472Z,15.43
2023-01-23T22:34:03.899Z,14.80
2023-01-23T22:36:31.248Z,14.27
2023-01-23T22:38:58.588Z,15.03
2023-01-23T22:41:25.935Z,14.63
2023-01-23T22:43:56.806Z,15.10
2023-01-23T22:46:24.144Z,15.03
2023-01-23T22:48:51.628Z,15.30
2023-01-23T22:51:19.888Z,15.33
2023-01-23T22:53:47.183Z,15.50
2023-01-23T22:56:14.433Z,14.60
2023-01-23T22:58:45.150Z,15.77
2023-01-23T23:01:12.861Z,14.83
2023-01-23T23:03:40.303Z,15.33
2023-01-23T23:06:08.349Z,15.07
2023-01-23T23:08:35.729Z,14.63
2023-01-23T23:11:06.410Z,14.00
2023-01-23T23:13:34.412Z,14.83
2023-01-23T23:16:05.535Z,14.60
2023-01-23T23:18:33.005Z,14.43
2023-01-23T23:21:00.968Z,13.33
2023-01-23T23:23:28.457Z,14.13
2023-01-23T23:25:56.278Z,15.03
2023-01-23T23:28:23.984Z,15.20
2023-01-23T23:30:51.409Z,14.30
2023-01-23T23:33:18.825Z,14.83
2023-01-23T23:35:46.170Z,15.10
2023-01-23T23:38:13.678Z,13.63
2023-01-23T23:40:41.352Z,14.00
2023-01-23T23:43:08.678Z,13.93
2023-01-23T23:45:36.131Z,15.37
2023-01-23T23:48:03.444Z,14.47
2023-01-23T23:50:30.925Z,15.10
2023-01-23T23:52:58.232Z,15.33
2023-01-23T23:55:25.612Z,15.27
2023-01-23T23:57:52.911Z,15.30
